Aviation Digital Data Service (ADDS)

Output produced by METARs form (1322 UTC 21 August 2019)
found at http://www.aviationweather.gov/metar/data/
 
Forecast for: RJFU (NAGASAKI(CIV/JMS, JP)
Text: TAF RJFU 211106Z 2112/2218 16008KT 9999 FEW015
Forecast period: 1200 UTC 21 August 2019 to 0300 UTC 22 August 2019
Forecast type: FROM: standard forecast or significant change
Winds: from the SSE (160 degrees) at 9 MPH (8 knots; 4.1 m/s)
Visibility: 6 or more miles 10+ km)
Ceiling: at least 12,000 feet AGL
Clouds: few clouds at 1500 feet AGL
Weather: no significant weather forecast for this period
Text: BECMG 2203/2206 22011KT
Forecast period: 0300 to 1800 UTC 22 August 2019
Forecast type: BECOMING: Conditions expected to become as follows by 0600 UTC 22 August 2019
Winds: from the SW (220 degrees) at 13 MPH (11 knots; 5.7 m/s)
Visibility: 6 or more miles 10+ km)
Ceiling: at least 12,000 feet AGL
Clouds: few clouds at 1500 feet AGL
Weather: no significant weather forecast for this period
Text: TEMPO 2212/2218 3000 SHRA BR FEW005 BKN008 BKN010
Forecast period: 1200 to 1800 UTC 22 August 2019
Forecast type: TEMPORARY: The following changes expected for less than half the time period
Visibility: 1.86 miles (2.99 km)
Ceiling: 800 feet AGL
Clouds: few clouds at 500 feet AGL
broken clouds at 800 feet AGL
broken clouds at 1000 feet AGL
Weather: SHRA BR  (rain showers, mist)